Time;durP1;ratioP1;P1;durP2;ratioP2;P2;SDS_P1;SDS_P2;PMS_P1;PMS_P2;Temp;Humidity;BMP_temperature;BMP_pressure;BME280_temperature;BME280_humidity;BME280_pressure;Samples;Min_cycle;Max_cycle;Signal;HPM_P1;HPM_P2
2022/09/12 00:00:31;;;;;;;;;;;;;;;16.42;60.08;99529.25;4379282;32;20001;-87
2022/09/12 00:02:56;;;;;;;;;;;;;;;16.40;60.08;99536.37;4395454;32;19986;-87
2022/09/12 00:05:22;;;;;;;;;;;;;;;16.37;60.07;99526.06;4408534;32;20001;-86
2022/09/12 00:07:47;;;;;;;;;;;;;;;16.28;60.07;99530.91;4406524;32;20319;-88
2022/09/12 00:10:12;;;;;;;;;;;;;;;16.19;60.06;99525.34;4396934;32;20051;-88
2022/09/12 00:12:37;;;;;;;;;;;;;;;16.24;60.06;99528.53;4399889;32;20028;-89
2022/09/12 00:15:03;;;;;;;;;;;;;;;16.39;60.07;99521.56;4388703;32;26124;-88
2022/09/12 00:17:28;;;;;;;;;;;;;;;16.23;60.06;99522.44;4398319;32;19990;-87
2022/09/12 00:19:54;;;;;;;;;;;;;;;16.12;60.07;99521.41;4377613;32;26695;-88
2022/09/12 00:22:20;;;;;;;;;;;;;;;16.09;60.06;99532.94;4389437;32;20008;-87
2022/09/12 00:24:45;;;;;;;;;;;;;;;16.16;60.06;99525.53;4391597;32;20371;-88
2022/09/12 00:27:10;;;;;;;;;;;;;;;16.13;60.06;99523.94;4393476;32;19975;-87
2022/09/12 00:29:35;;;;;;;;;;;;;;;16.12;60.06;99538.00;4395285;32;20012;-87
2022/09/12 00:32:01;;;;;;;;;;;;;;;15.95;60.06;99544.22;4394581;32;25268;-87
2022/09/12 00:34:26;;;;;;;;;;;;;;;15.98;60.05;99548.44;4393198;32;20000;-86
2022/09/12 00:36:51;;;;;;;;;;;;;;;16.08;60.06;99543.50;4397438;32;20109;-86
2022/09/12 00:39:17;;;;;;;;;;;;;;;15.99;60.05;99537.00;4393622;32;20373;-87
2022/09/12 00:41:42;;;;;;;;;;;;;;;16.21;60.07;99534.81;4395001;32;20024;-86
2022/09/12 00:44:10;;;;;;;;;;;;;;;16.15;60.06;99535.19;4400406;32;19997;-87
2022/09/12 00:46:36;;;;;;;;;;;;;;;16.21;60.07;99537.44;4403210;32;19994;-88
2022/09/12 00:49:11;;;;;;;;;;;;;;;16.24;60.07;99542.53;4398458;32;20334;-89
2022/09/12 00:51:37;;;;;;;;;;;;;;;16.06;60.06;99543.59;4381314;32;19986;-90
2022/09/12 00:54:03;;;;;;;;;;;;;;;16.14;60.06;99541.38;4378025;32;20014;-89
2022/09/12 00:56:29;;;;;;;;;;;;;;;16.23;60.06;99540.00;4393694;32;19982;-88
2022/09/12 00:59:01;;;;;;;;;;;;;;;16.33;60.08;99535.06;4403287;32;28239;-89
2022/09/12 01:01:27;;;;;;;;;;;;;;;16.36;60.07;99530.47;4352354;32;913394;-87
2022/09/12 01:03:52;;;;;;;;;;;;;;;16.20;60.07;99546.28;4380792;32;19990;-87
2022/09/12 01:06:19;;;;;;;;;;;;;;;16.40;60.08;99547.72;4385133;32;19990;-87
2022/09/12 01:08:45;;;;;;;;;;;;;;;16.35;60.07;99539.28;4403883;32;19996;-86
2022/09/12 01:11:11;;;;;;;;;;;;;;;16.19;60.07;99543.72;4401930;32;20004;-87
2022/09/12 01:13:36;;;;;;;;;;;;;;;16.27;60.07;99544.97;4405528;32;20039;-87
2022/09/12 01:16:02;;;;;;;;;;;;;;;16.37;60.07;99539.19;4397101;32;19990;-86
2022/09/12 01:18:44;;;;;;;;;;;;;;;16.28;60.07;99537.94;4398920;32;19992;-87
2022/09/12 01:21:10;;;;;;;;;;;;;;;16.12;60.06;99538.00;4408906;32;20012;-87
2022/09/12 01:23:44;;;;;;;;;;;;;;;16.18;60.07;99534.16;4408249;32;19981;-86
2022/09/12 01:26:25;;;;;;;;;;;;;;;16.00;60.05;99538.69;4393792;32;19993;-87
2022/09/12 01:28:58;;;;;;;;;;;;;;;16.03;60.06;99546.38;4396623;32;19985;-86
2022/09/12 01:31:33;;;;;;;;;;;;;;;15.95;60.06;99535.50;4408767;32;19990;-86
2022/09/12 01:33:58;;;;;;;;;;;;;;;15.76;60.04;99548.81;4408872;32;20417;-88
2022/09/12 01:36:53;;;;;;;;;;;;;;;15.64;60.04;99547.75;4412229;32;20080;-88
2022/09/12 01:39:18;;;;;;;;;;;;;;;15.68;60.04;99542.31;4398876;32;19978;-87
2022/09/12 01:41:53;;;;;;;;;;;;;;;15.82;60.05;99545.84;4423057;32;20017;-88
2022/09/12 01:44:21;;;;;;;;;;;;;;;15.72;60.04;99547.31;4423183;32;19994;-87
2022/09/12 01:47:07;;;;;;;;;;;;;;;15.65;60.04;99533.69;4422355;32;20350;-88
2022/09/12 01:50:05;;;;;;;;;;;;;;;15.64;60.04;99536.41;4423281;32;20341;-88
2022/09/12 01:52:49;;;;;;;;;;;;;;;15.60;60.03;99538.31;4396410;32;19998;-86
2022/09/12 01:55:19;;;;;;;;;;;;;;;15.65;60.04;99538.09;4422625;32;19982;-87
2022/09/12 01:57:50;;;;;;;;;;;;;;;15.39;60.01;99546.53;4409072;32;20038;-87
2022/09/12 02:00:15;;;;;;;;;;;;;;;15.36;60.02;99548.34;4422764;32;20950;-88
2022/09/12 02:03:01;;;;;;;;;;;;;;;15.44;60.03;99547.97;4396012;32;20014;-86
2022/09/12 02:05:27;;;;;;;;;;;;;;;15.55;60.04;99558.69;4422897;32;19990;-87
2022/09/12 02:08:18;;;;;;;;;;;;;;;15.43;60.02;99553.28;4422784;32;20019;-88
2022/09/12 02:10:51;;;;;;;;;;;;;;;15.38;60.02;99556.19;4404350;32;20584;-87
2022/09/12 02:13:19;;;;;;;;;;;;;;;15.49;60.03;99553.78;4408732;32;20396;-88
2022/09/12 02:15:46;;;;;;;;;;;;;;;15.58;60.03;99558.56;4422772;32;19981;-87
2022/09/12 02:18:13;;;;;;;;;;;;;;;15.59;60.03;99555.00;4403293;32;19986;-88
2022/09/12 02:20:38;;;;;;;;;;;;;;;15.68;60.04;99563.31;4392653;32;19997;-87
2022/09/12 02:23:05;;;;;;;;;;;;;;;15.71;60.04;99555.25;4408802;32;20053;-89
2022/09/12 02:25:30;;;;;;;;;;;;;;;15.80;60.04;99552.09;4408790;32;20008;-88
2022/09/12 02:28:00;;;;;;;;;;;;;;;15.72;60.04;99555.16;4408813;32;20026;-88
2022/09/12 02:30:26;;;;;;;;;;;;;;;15.86;60.04;99541.28;4408327;32;20043;-87
2022/09/12 02:32:54;;;;;;;;;;;;;;;15.81;60.04;99552.00;4408588;32;19993;-87
2022/09/12 02:35:25;;;;;;;;;;;;;;;15.85;60.04;99547.44;4416703;32;19950;-87
2022/09/12 02:38:01;;;;;;;;;;;;;;;15.80;60.04;99550.31;4418465;32;20041;-87
2022/09/12 02:40:26;;;;;;;;;;;;;;;15.93;60.06;99553.97;4408971;32;19978;-88
2022/09/12 02:42:52;;;;;;;;;;;;;;;15.62;60.03;99554.84;4409039;32;20040;-87
2022/09/12 02:45:17;;;;;;;;;;;;;;;15.54;60.03;99559.63;4411687;32;19994;-89
2022/09/12 02:47:49;;;;;;;;;;;;;;;15.55;60.04;99558.69;4416823;32;19988;-87
2022/09/12 02:50:15;;;;;;;;;;;;;;;15.44;60.03;99558.44;4398496;32;19986;-87
2022/09/12 02:52:40;;;;;;;;;;;;;;;15.45;60.02;99554.91;4408500;32;20260;-89
2022/09/12 02:55:05;;;;;;;;;;;;;;;15.58;60.03;99550.69;4406516;32;19986;-87
2022/09/12 02:57:30;;;;;;;;;;;;;;;15.66;60.04;99560.78;4399454;32;20000;-88
2022/09/12 02:59:58;;;;;;;;;;;;;;;15.84;60.04;99558.87;4396963;32;20279;-88
2022/09/12 03:02:23;;;;;;;;;;;;;;;15.80;60.05;99559.97;4408352;32;20033;-88
2022/09/12 03:04:51;;;;;;;;;;;;;;;15.76;60.04;99561.09;4422057;32;19982;-88
2022/09/12 03:07:16;;;;;;;;;;;;;;;15.86;60.04;99557.88;4421666;32;19982;-88
2022/09/12 03:09:44;;;;;;;;;;;;;;;15.84;60.03;99562.34;4408151;32;19992;-87
2022/09/12 03:12:28;;;;;;;;;;;;;;;15.84;60.04;99554.47;4408074;32;20619;-90
2022/09/12 03:15:12;;;;;;;;;;;;;;;15.76;60.04;99551.44;4407699;32;19993;-86
2022/09/12 03:17:56;;;;;;;;;;;;;;;15.62;60.03;99557.47;4407725;32;19977;-87
2022/09/12 03:20:47;;;;;;;;;;;;;;;15.54;60.03;99557.00;4407946;32;20005;-86
2022/09/12 03:23:15;;;;;;;;;;;;;;;15.68;60.03;99550.19;4390127;32;20259;-86
2022/09/12 03:25:47;;;;;;;;;;;;;;;15.41;60.02;99542.88;4421600;32;20000;-84
2022/09/12 03:28:13;;;;;;;;;;;;;;;15.29;60.02;99548.78;4407758;32;20357;-86
2022/09/12 03:30:39;;;;;;;;;;;;;;;15.18;60.02;99545.91;4407050;32;20026;-87
2022/09/12 03:33:05;;;;;;;;;;;;;;;15.05;60.00;99557.03;4407865;32;19990;-85
2022/09/12 03:35:30;;;;;;;;;;;;;;;15.20;60.01;99554.53;4416669;32;19992;-85
2022/09/12 03:37:55;;;;;;;;;;;;;;;15.26;60.02;99562.06;4418332;32;19994;-86
2022/09/12 03:40:21;;;;;;;;;;;;;;;15.14;60.00;99560.09;4410053;32;19993;-86
2022/09/12 03:42:46;;;;;;;;;;;;;;;14.96;60.00;99567.19;4409305;32;20008;-87
2022/09/12 03:45:11;;;;;;;;;;;;;;;14.99;60.00;99574.87;4409890;32;19998;-87
2022/09/12 03:47:36;;;;;;;;;;;;;;;15.03;60.00;99565.94;4423377;32;29446;-86
2022/09/12 03:50:01;;;;;;;;;;;;;;;14.94;59.99;99566.44;4410043;32;20016;-86
2022/09/12 03:52:27;;;;;;;;;;;;;;;14.94;60.00;99562.03;4408879;32;19994;-88
2022/09/12 03:54:52;;;;;;;;;;;;;;;15.00;60.00;99569.56;4410010;32;19986;-86
2022/09/12 03:57:17;;;;;;;;;;;;;;;14.91;59.99;99559.56;4409181;32;20402;-88
2022/09/12 03:59:42;;;;;;;;;;;;;;;15.04;60.00;99565.84;4409703;32;21918;-88
2022/09/12 04:02:11;;;;;;;;;;;;;;;15.09;60.00;99559.50;4423195;32;20001;-88
2022/09/12 04:04:36;;;;;;;;;;;;;;;15.02;60.01;99562.47;4409668;32;20112;-88
2022/09/12 04:07:01;;;;;;;;;;;;;;;15.11;60.01;99568.97;4409494;32;19970;-87
2022/09/12 04:09:27;;;;;;;;;;;;;;;15.07;60.00;99569.22;4409711;32;19982;-88
2022/09/12 04:11:52;;;;;;;;;;;;;;;15.19;60.02;99573.81;4409736;32;20279;-88
2022/09/12 04:14:17;;;;;;;;;;;;;;;15.13;60.01;99574.13;4406973;32;20016;-87
2022/09/12 04:16:42;;;;;;;;;;;;;;;15.14;60.00;99581.94;4403586;32;19996;-88
2022/09/12 04:19:10;;;;;;;;;;;;;;;15.15;60.01;99577.53;4410325;32;22162;-86
2022/09/12 04:21:35;;;;;;;;;;;;;;;14.99;60.00;99574.87;4408680;32;20036;-88
2022/09/12 04:24:00;;;;;;;;;;;;;;;15.03;60.01;99576.41;4409598;32;20307;-88
2022/09/12 04:26:28;;;;;;;;;;;;;;;15.04;60.00;99581.56;4402851;32;20232;-87
2022/09/12 04:28:54;;;;;;;;;;;;;;;15.00;60.00;99573.97;4408507;32;19978;-87
2022/09/12 04:31:21;;;;;;;;;;;;;;;15.05;60.00;99575.41;4422710;32;20008;-86
2022/09/12 04:33:46;;;;;;;;;;;;;;;15.19;60.01;99565.97;4423370;32;19977;-87
2022/09/12 04:36:15;;;;;;;;;;;;;;;15.24;60.01;99572.66;4398043;32;20270;-86
2022/09/12 04:38:44;;;;;;;;;;;;;;;15.31;60.02;99578.41;4409461;32;19970;-87
2022/09/12 04:41:13;;;;;;;;;;;;;;;15.29;60.01;99575.84;4408616;32;19989;-86
2022/09/12 04:43:38;;;;;;;;;;;;;;;15.40;60.01;99579.69;4423349;32;20008;-87
2022/09/12 04:46:04;;;;;;;;;;;;;;;15.39;60.02;99581.47;4409372;32;20335;-87
2022/09/12 04:48:29;;;;;;;;;;;;;;;15.35;60.02;99574.69;4409191;32;20050;-88
2022/09/12 04:50:54;;;;;;;;;;;;;;;15.46;60.02;99585.44;4409055;32;26238;-87
2022/09/12 04:53:20;;;;;;;;;;;;;;;15.46;60.02;99582.81;4423409;32;19978;-87
2022/09/12 04:55:45;;;;;;;;;;;;;;;15.46;60.02;99588.06;4409478;32;20034;-88
2022/09/12 04:58:10;;;;;;;;;;;;;;;15.41;60.03;99591.88;4409220;32;21132;-87
2022/09/12 05:00:35;;;;;;;;;;;;;;;15.46;60.02;99595.94;4408908;32;23766;-86
2022/09/12 05:03:01;;;;;;;;;;;;;;;15.54;60.03;99598.13;4409024;32;19985;-88
2022/09/12 05:05:26;;;;;;;;;;;;;;;15.68;60.04;99600.03;4408922;32;20365;-87
2022/09/12 05:07:51;;;;;;;;;;;;;;;15.80;60.04;99607.22;4423375;32;19989;-87
2022/09/12 05:10:17;;;;;;;;;;;;;;;15.82;60.04;99600.09;4423417;32;19970;-89
2022/09/12 05:12:42;;;;;;;;;;;;;;;15.86;60.04;99599.88;4409632;32;20713;-88
2022/09/12 05:15:07;;;;;;;;;;;;;;;16.10;60.06;99602.03;4423442;32;20323;-88
2022/09/12 05:17:33;;;;;;;;;;;;;;;16.07;60.05;99600.41;4409539;32;19965;-86
2022/09/12 05:19:59;;;;;;;;;;;;;;;16.18;60.07;99602.44;4423501;32;20255;-88
2022/09/12 05:22:25;;;;;;;;;;;;;;;16.22;60.06;99604.81;4423428;32;20370;-88
2022/09/12 05:24:51;;;;;;;;;;;;;;;16.25;60.07;99612.50;4422700;32;19974;-88
2022/09/12 05:27:16;;;;;;;;;;;;;;;16.25;60.07;99619.53;4407775;32;21393;-87
2022/09/12 05:29:43;;;;;;;;;;;;;;;16.34;60.07;99608.50;4398885;32;29373;-88
2022/09/12 05:32:08;;;;;;;;;;;;;;;16.40;60.08;99616.03;4412631;32;20097;-87
2022/09/12 05:34:33;;;;;;;;;;;;;;;16.47;60.09;99621.78;4395183;32;20017;-88
2022/09/12 05:36:59;;;;;;;;;;;;;;;16.37;60.07;99620.63;4413372;32;19988;-84
2022/09/12 05:39:24;;;;;;;;;;;;;;;16.55;60.08;99632.66;4422953;32;20300;-86
2022/09/12 05:41:49;;;;;;;;;;;;;;;16.50;60.08;99621.59;4409196;32;20012;-87
2022/09/12 05:44:14;;;;;;;;;;;;;;;16.49;60.08;99625.16;4409751;32;25018;-87
2022/09/12 05:46:40;;;;;;;;;;;;;;;16.60;60.08;99619.28;4410363;32;20016;-85
2022/09/12 05:49:07;;;;;;;;;;;;;;;16.69;60.09;99624.88;4409049;32;19994;-87
2022/09/12 05:51:33;;;;;;;;;;;;;;;16.62;60.08;99626.13;4408874;32;19993;-86
2022/09/12 05:53:59;;;;;;;;;;;;;;;16.64;60.09;99623.41;4408727;32;19974;-87
2022/09/12 05:56:26;;;;;;;;;;;;;;;16.68;60.09;99624.97;4408108;32;20070;-87
2022/09/12 05:58:55;;;;;;;;;;;;;;;16.71;60.09;99636.13;4408364;32;20005;-86
2022/09/12 06:01:21;;;;;;;;;;;;;;;16.74;60.09;99635.94;4408766;32;20051;-86
2022/09/12 06:03:50;;;;;;;;;;;;;;;17.02;60.11;99626.41;4408833;32;19997;-86
2022/09/12 06:06:17;;;;;;;;;;;;;;;17.05;60.11;99636.78;4408913;32;20410;-87
2022/09/12 06:08:43;;;;;;;;;;;;;;;17.00;60.10;99634.38;4408657;32;19993;-87
2022/09/12 06:11:10;;;;;;;;;;;;;;;17.09;60.12;99636.47;4409067;32;20354;-87
2022/09/12 06:13:41;;;;;;;;;;;;;;;17.19;60.12;99631.50;4422159;32;20330;-88
2022/09/12 06:16:13;;;;;;;;;;;;;;;17.30;60.12;99634.34;4422972;32;19977;-88
2022/09/12 06:18:38;;;;;;;;;;;;;;;17.22;60.12;99628.69;4409097;32;19995;-87
2022/09/12 06:21:04;;;;;;;;;;;;;;;17.36;60.13;99633.94;4409084;32;20000;-87
2022/09/12 06:23:29;;;;;;;;;;;;;;;17.32;60.13;99634.25;4422911;32;20001;-86
2022/09/12 06:25:54;;;;;;;;;;;;;;;17.36;60.13;99627.84;4422302;32;20587;-86
2022/09/12 06:28:20;;;;;;;;;;;;;;;17.49;60.14;99634.03;4408411;32;19989;-85
2022/09/12 06:30:45;;;;;;;;;;;;;;;17.48;60.14;99627.91;4408355;32;19981;-85
2022/09/12 06:33:10;;;;;;;;;;;;;;;17.42;60.13;99625.66;4422562;32;20008;-86
2022/09/12 06:35:37;;;;;;;;;;;;;;;17.45;60.13;99632.53;4400816;32;19990;-85
2022/09/12 06:38:02;;;;;;;;;;;;;;;17.58;60.13;99632.63;4405794;32;20046;-86
2022/09/12 06:40:28;;;;;;;;;;;;;;;17.61;60.14;99633.28;4408415;32;19988;-86
2022/09/12 06:42:53;;;;;;;;;;;;;;;17.66;60.14;99630.34;4408754;32;20055;-87
2022/09/12 06:45:19;;;;;;;;;;;;;;;17.78;60.15;99630.47;4408011;32;25384;-86
2022/09/12 06:47:44;;;;;;;;;;;;;;;17.81;60.16;99629.41;4408485;32;20355;-87
2022/09/12 06:50:10;;;;;;;;;;;;;;;17.87;60.16;99638.69;4422275;32;19978;-85
2022/09/12 06:52:35;;;;;;;;;;;;;;;17.87;60.16;99630.81;4408172;32;20033;-87
2022/09/12 06:55:00;;;;;;;;;;;;;;;17.70;60.15;99632.72;4408326;32;19970;-86
2022/09/12 06:57:29;;;;;;;;;;;;;;;17.70;60.15;99631.88;4406428;32;29918;-85
2022/09/12 06:59:54;;;;;;;;;;;;;;;17.64;60.14;99629.59;4421428;32;19998;-86
2022/09/12 07:02:19;;;;;;;;;;;;;;;17.87;60.16;99625.53;4407506;32;19996;-86
2022/09/12 07:04:44;;;;;;;;;;;;;;;17.82;60.15;99631.09;4407894;32;20052;-88
2022/09/12 07:07:10;;;;;;;;;;;;;;;17.67;60.14;99624.12;4407256;32;22673;-88
2022/09/12 07:09:35;;;;;;;;;;;;;;;17.67;60.14;99622.38;4409625;32;20035;-85
2022/09/12 07:12:03;;;;;;;;;;;;;;;17.72;60.15;99627.34;4409860;32;19970;-86
2022/09/12 07:14:28;;;;;;;;;;;;;;;17.73;60.15;99623.78;4410974;32;19986;-87
2022/09/12 07:16:53;;;;;;;;;;;;;;;17.85;60.14;99630.91;4409256;32;28075;-85
2022/09/12 07:19:18;;;;;;;;;;;;;;;18.17;60.17;99622.72;4409449;32;19994;-84
2022/09/12 07:21:44;;;;;;;;;;;;;;;18.23;60.18;99623.16;4408640;32;22629;-86
2022/09/12 07:24:09;;;;;;;;;;;;;;;18.24;60.18;99637.19;4420396;32;20324;-85
2022/09/12 07:26:34;;;;;;;;;;;;;;;18.24;60.18;99631.91;4415537;32;20022;-84
2022/09/12 07:29:00;;;;;;;;;;;;;;;18.36;60.18;99631.09;4398566;32;20335;-88
2022/09/12 07:31:25;;;;;;;;;;;;;;;18.31;60.17;99634.03;4403100;32;19978;-86
2022/09/12 07:33:51;;;;;;;;;;;;;;;18.52;60.18;99626.50;4418360;32;20044;-87
2022/09/12 07:36:17;;;;;;;;;;;;;;;18.41;60.19;99636.91;4398137;32;20032;-86
2022/09/12 07:38:42;;;;;;;;;;;;;;;18.58;60.20;99639.28;4423421;32;19993;-87
2022/09/12 07:41:15;;;;;;;;;;;;;;;18.61;60.19;99636.44;4398602;32;19978;-86
2022/09/12 07:43:41;;;;;;;;;;;;;;;18.44;60.18;99636.69;4396448;32;19982;-88
2022/09/12 07:46:06;;;;;;;;;;;;;;;18.67;60.19;99640.47;4405719;32;26543;-87
2022/09/12 07:48:32;;;;;;;;;;;;;;;18.85;60.21;99643.66;4395105;32;19989;-86
2022/09/12 07:50:58;;;;;;;;;;;;;;;18.94;60.21;99643.06;4423712;32;19978;-87
2022/09/12 07:53:23;;;;;;;;;;;;;;;18.94;60.21;99643.06;4424159;32;19974;-85
2022/09/12 07:55:54;;;;;;;;;;;;;;;18.93;60.21;99633.47;4423618;32;20376;-89
2022/09/12 07:58:20;;;;;;;;;;;;;;;18.93;60.21;99639.59;4408063;32;20035;-88
2022/09/12 08:00:45;;;;;;;;;;;;;;;18.96;60.21;99635.91;4412812;32;19997;-89
2022/09/12 08:03:10;;;;;;;;;;;;;;;19.23;60.22;99641.06;4409846;32;19982;-89
2022/09/12 08:05:36;;;;;;;;;;;;;;;19.26;60.23;99639.03;4409564;32;20025;-88
2022/09/12 08:08:02;;;;;;;;;;;;;;;19.59;60.24;99642.94;4409960;32;19993;-88
2022/09/12 08:10:27;;;;;;;;;;;;;;;19.67;60.25;99634.47;4423143;32;20055;-86
2022/09/12 08:12:52;;;;;;;;;;;;;;;19.65;60.25;99644.31;4409337;32;21432;-86
2022/09/12 08:15:19;;;;;;;;;;;;;;;19.67;60.25;99632.69;4409223;32;20039;-88
2022/09/12 08:17:44;;;;;;;;;;;;;;;19.80;60.26;99636.13;4409144;32;19998;-89
2022/09/12 08:20:10;;;;;;;;;;;;;;;20.05;60.27;99634.34;4423505;32;20008;-87
2022/09/12 08:22:35;;;;;;;;;;;;;;;20.21;60.28;99634.91;4423583;32;19974;-86
2022/09/12 08:25:01;;;;;;;;;;;;;;;20.21;60.28;99633.13;4423831;32;19978;-87
2022/09/12 08:27:26;;;;;;;;;;;;;;;20.31;60.28;99632.44;4406847;32;24496;-88
2022/09/12 08:29:52;;;;;;;;;;;;;;;20.51;60.29;99624.75;4400929;32;20370;-88
2022/09/12 08:32:17;;;;;;;;;;;;;;;20.72;60.31;99627.56;4423446;32;20646;-85
2022/09/12 08:34:42;;;;;;;;;;;;;;;20.94;60.32;99629.44;4407587;32;21477;-87
2022/09/12 08:37:08;;;;;;;;;;;;;;;21.00;60.32;99631.59;4388003;32;22467;-87
2022/09/12 08:39:33;;;;;;;;;;;;;;;20.98;60.31;99622.94;4409087;32;29964;-88
2022/09/12 08:42:02;;;;;;;;;;;;;;;21.24;60.33;99628.03;4410149;32;20303;-86
2022/09/12 08:44:33;;;;;;;;;;;;;;;21.17;60.32;99632.09;4411309;32;19990;-86
2022/09/12 08:47:08;;;;;;;;;;;;;;;21.27;60.34;99630.44;4423763;32;20282;-84
2022/09/12 08:49:35;;;;;;;;;;;;;;;21.26;60.34;99631.41;4423507;32;19981;-86
2022/09/12 08:52:20;;;;;;;;;;;;;;;21.31;60.33;99623.97;4409215;32;20001;-87
2022/09/12 08:54:46;;;;;;;;;;;;;;;21.41;60.34;99631.06;4412564;32;19996;-86
2022/09/12 08:57:11;;;;;;;;;;;;;;;21.49;60.35;99616.38;4409349;32;20251;-86
2022/09/12 08:59:37;;;;;;;;;;;;;;;21.51;60.35;99614.44;4423524;32;19993;-87
2022/09/12 09:02:03;;;;;;;;;;;;;;;21.70;60.36;99607.56;4423647;32;19978;-86
2022/09/12 09:04:58;;;;;;;;;;;;;;;21.67;60.35;99601.66;4409608;32;20248;-87
2022/09/12 09:07:42;;;;;;;;;;;;;;;21.75;60.36;99604.53;4412830;32;20350;-87
2022/09/12 09:10:19;;;;;;;;;;;;;;;21.73;60.36;99606.47;4423435;32;19969;-86
2022/09/12 09:13:03;;;;;;;;;;;;;;;21.82;60.36;99602.25;4409792;32;19974;-86
2022/09/12 09:15:48;;;;;;;;;;;;;;;21.89;60.37;99603.44;4423457;32;20004;-85
2022/09/12 09:18:21;;;;;;;;;;;;;;;21.65;60.36;99604.44;4409446;32;20020;-86
2022/09/12 09:20:56;;;;;;;;;;;;;;;21.74;60.36;99597.53;4422532;32;20811;-88
2022/09/12 09:23:26;;;;;;;;;;;;;;;21.63;60.35;99611.66;4408901;32;19996;-87
2022/09/12 09:26:03;;;;;;;;;;;;;;;21.61;60.35;99605.66;4408708;32;20365;-87
2022/09/12 09:28:52;;;;;;;;;;;;;;;21.75;60.36;99600.06;4408906;32;20068;-86
2022/09/12 09:31:18;;;;;;;;;;;;;;;21.91;60.37;99601.50;4414901;32;19978;-85
2022/09/12 09:33:44;;;;;;;;;;;;;;;22.41;60.41;99593.88;4398918;32;20391;-85
2022/09/12 09:36:10;;;;;;;;;;;;;;;22.56;60.40;99589.94;4407201;32;19994;-87
2022/09/12 09:38:38;;;;;;;;;;;;;;;22.72;60.41;99597.47;4422312;32;19996;-86
2022/09/12 09:41:22;;;;;;;;;;;;;;;22.52;60.40;99602.63;4408241;32;19986;-88
2022/09/12 09:43:47;;;;;;;;;;;;;;;22.40;60.40;99594.84;4422546;32;20000;-86
2022/09/12 09:46:12;;;;;;;;;;;;;;;22.67;60.41;99611.09;4422030;32;19998;-85
2022/09/12 09:48:42;;;;;;;;;;;;;;;22.87;60.42;99618.25;4404277;32;20005;-87
2022/09/12 09:51:08;;;;;;;;;;;;;;;22.86;60.42;99605.09;4389486;32;19978;-86
2022/09/12 09:53:35;;;;;;;;;;;;;;;22.80;60.43;99609.09;4408066;32;19974;-87
2022/09/12 09:56:02;;;;;;;;;;;;;;;22.68;60.42;99610.94;4422511;32;20039;-87
2022/09/12 09:58:28;;;;;;;;;;;;;;;22.74;60.42;99614.94;4408019;32;20009;-87
2022/09/12 10:00:57;;;;;;;;;;;;;;;22.83;60.42;99616.81;4422198;32;19990;-88
2022/09/12 10:03:31;;;;;;;;;;;;;;;23.12;60.44;99601.03;4397368;32;20000;-88
2022/09/12 10:06:00;;;;;;;;;;;;;;;23.14;60.44;99595.59;4410328;32;20033;-88
2022/09/12 10:08:27;;;;;;;;;;;;;;;22.96;60.42;99600.72;4387432;32;19990;-88
2022/09/12 10:10:53;;;;;;;;;;;;;;;23.17;60.44;99587.38;4409145;32;20053;-87
2022/09/12 10:13:38;;;;;;;;;;;;;;;23.20;60.44;99589.78;4401278;32;20028;-88
2022/09/12 10:16:05;;;;;;;;;;;;;;;23.16;60.44;99588.34;4409145;32;20417;-86
2022/09/12 10:18:37;;;;;;;;;;;;;;;23.33;60.44;99598.34;4408883;32;20009;-86
2022/09/12 10:21:13;;;;;;;;;;;;;;;23.29;60.45;99604.91;4408834;32;19973;-88
2022/09/12 10:23:40;;;;;;;;;;;;;;;23.09;60.44;99597.81;4405880;32;20714;-88
2022/09/12 10:26:12;;;;;;;;;;;;;;;22.99;60.44;99600.44;4407642;32;19990;-87
2022/09/12 10:28:53;;;;;;;;;;;;;;;23.01;60.43;99597.66;4405802;32;20334;-85
2022/09/12 10:31:47;;;;;;;;;;;;;;;22.83;60.42;99600.06;4407377;32;19979;-87
2022/09/12 10:34:27;;;;;;;;;;;;;;;22.80;60.43;99593.16;4400459;32;19966;-88
2022/09/12 10:37:03;;;;;;;;;;;;;;;22.96;60.42;99592.75;4402157;32;19981;-88
2022/09/12 10:39:29;;;;;;;;;;;;;;;22.95;60.43;99599.03;4408533;32;20053;-88
2022/09/12 10:41:55;;;;;;;;;;;;;;;22.96;60.43;99598.88;4408245;32;19962;-88
2022/09/12 10:44:27;;;;;;;;;;;;;;;23.07;60.44;99599.78;4407692;32;31279;-86
2022/09/12 10:46:53;;;;;;;;;;;;;;;22.97;60.44;99599.72;4409226;32;20705;-87
2022/09/12 10:49:22;;;;;;;;;;;;;;;22.98;60.44;99604.06;4423428;32;19990;-86
2022/09/12 10:51:47;;;;;;;;;;;;;;;22.75;60.42;99594.53;4409565;32;19993;-87
2022/09/12 10:54:13;;;;;;;;;;;;;;;22.69;60.42;99598.53;4408960;32;20018;-86
2022/09/12 10:56:40;;;;;;;;;;;;;;;22.56;60.42;99597.91;4409025;32;19979;-87
2022/09/12 10:59:06;;;;;;;;;;;;;;;22.46;60.41;99599.63;4409597;32;19993;-86
2022/09/12 11:01:31;;;;;;;;;;;;;;;22.40;60.42;99595.69;4423427;32;19974;-88
2022/09/12 11:04:15;;;;;;;;;;;;;;;22.30;60.40;99598.25;4409166;32;19989;-87
2022/09/12 11:06:57;;;;;;;;;;;;;;;22.48;60.41;99600.34;4423354;32;19981;-88
2022/09/12 11:09:28;;;;;;;;;;;;;;;22.48;60.41;99595.06;4409260;32;20048;-85
2022/09/12 11:11:59;;;;;;;;;;;;;;;22.42;60.41;99601.69;4409020;32;20615;-86
2022/09/12 11:14:45;;;;;;;;;;;;;;;22.40;60.41;99593.03;4409303;32;19980;-86
2022/09/12 11:17:15;;;;;;;;;;;;;;;22.29;60.40;99595.75;4421835;32;19991;-86
2022/09/12 11:19:58;;;;;;;;;;;;;;;22.43;60.41;99594.56;4409313;32;20011;-86
2022/09/12 11:22:24;;;;;;;;;;;;;;;22.45;60.41;99595.28;4408954;32;20713;-86
2022/09/12 11:25:08;;;;;;;;;;;;;;;22.19;60.40;99600.94;4423084;32;20059;-87
2022/09/12 11:27:45;;;;;;;;;;;;;;;21.84;60.37;99609.09;4423225;32;19993;-87
2022/09/12 11:30:11;;;;;;;;;;;;;;;21.85;60.38;99612.59;4422919;32;19985;-85
2022/09/12 11:32:49;;;;;;;;;;;;;;;21.85;60.37;99605.50;4409257;32;19985;-87
2022/09/12 11:35:14;;;;;;;;;;;;;;;21.70;60.37;99601.41;4422672;32;19982;-86
2022/09/12 11:37:42;;;;;;;;;;;;;;;21.60;60.36;99598.66;4422813;32;20017;-86
2022/09/12 11:40:21;;;;;;;;;;;;;;;21.65;60.37;99604.44;4408825;32;19986;-87
2022/09/12 11:42:46;;;;;;;;;;;;;;;21.61;60.36;99602.16;4413013;32;20003;-88
2022/09/12 11:45:14;;;;;;;;;;;;;;;21.52;60.36;99600.22;4408981;32;21622;-87
2022/09/12 11:47:39;;;;;;;;;;;;;;;21.67;60.37;99605.16;4408916;32;20346;-88
2022/09/12 11:50:07;;;;;;;;;;;;;;;21.70;60.38;99596.94;4408699;32;20037;-87
2022/09/12 11:52:34;;;;;;;;;;;;;;;21.51;60.36;99593.25;4408787;32;19989;-87
2022/09/12 11:55:02;;;;;;;;;;;;;;;21.44;60.35;99595.56;4409959;32;19992;-89
2022/09/12 11:57:28;;;;;;;;;;;;;;;21.53;60.36;99591.31;4398190;32;19994;-86
2022/09/12 12:00:04;;;;;;;;;;;;;;;21.44;60.36;99595.56;4410423;32;20040;-87
2022/09/12 12:02:32;;;;;;;;;;;;;;;21.53;60.36;99597.47;4411052;32;19974;-88
2022/09/12 12:05:07;;;;;;;;;;;;;;;21.70;60.38;99583.72;4410646;32;20032;-88
2022/09/12 12:07:37;;;;;;;;;;;;;;;21.76;60.37;99592.97;4410370;32;19997;-87
2022/09/12 12:10:02;;;;;;;;;;;;;;;21.94;60.39;99578.22;4424567;32;19985;-87
2022/09/12 12:12:27;;;;;;;;;;;;;;;22.21;60.40;99580.44;4410875;32;19990;-88
2022/09/12 12:14:53;;;;;;;;;;;;;;;22.25;60.40;99578.41;4410873;32;20008;-87
2022/09/12 12:17:19;;;;;;;;;;;;;;;22.46;60.41;99576.59;4424782;32;20012;-87
2022/09/12 12:19:45;;;;;;;;;;;;;;;22.74;60.43;99571.63;4410438;32;20012;-88
2022/09/12 12:22:15;;;;;;;;;;;;;;;23.03;60.43;99569.16;4410817;32;20307;-88
2022/09/12 12:25:16;;;;;;;;;;;;;;;23.11;60.45;99562.19;4410709;32;20334;-88
2022/09/12 12:27:44;;;;;;;;;;;;;;;23.34;60.46;99556.69;4377098;32;20006;-87
2022/09/12 12:30:28;;;;;;;;;;;;;;;23.08;60.44;99561.63;4415621;32;20002;-87
2022/09/12 12:32:59;;;;;;;;;;;;;;;22.78;60.42;99565.91;4424884;32;19996;-87
2022/09/12 12:35:34;;;;;;;;;;;;;;;22.78;60.42;99562.44;4411080;32;19986;-86
2022/09/12 12:37:59;;;;;;;;;;;;;;;22.86;60.43;99568.78;4410460;32;19990;-87
2022/09/12 12:40:24;;;;;;;;;;;;;;;22.64;60.42;99560.94;4424310;32;20012;-88
2022/09/12 12:42:56;;;;;;;;;;;;;;;22.45;60.41;99561.66;4410713;32;19989;-87
2022/09/12 12:45:28;;;;;;;;;;;;;;;22.47;60.40;99575.63;4410603;32;20337;-87
2022/09/12 12:47:54;;;;;;;;;;;;;;;22.51;60.41;99569.09;4424399;32;19993;-87
2022/09/12 12:50:19;;;;;;;;;;;;;;;22.46;60.40;99567.78;4410503;32;20008;-86
2022/09/12 12:52:47;;;;;;;;;;;;;;;22.44;60.41;99561.78;4410298;32;19974;-88
2022/09/12 12:55:13;;;;;;;;;;;;;;;22.56;60.42;99560.75;4410559;32;19986;-87